Terminal Aerodrome Forecast
Issued by NWS Tiyan, Guam

Home | Current Version | Previous Version | Text Only | Print | Product List | Glossary On
Versions: 1 2 3 4 5 6 7 8 9 10 11 12 13
000
FTPQ31 PGUM 302320
TAFGUM
TAF
PGUM 302320Z 0100/0206 09015KT P6SM SCT020 SCT050
     FM010800 09007KT P6SM SCT020
     FM020100 09015KT P6SM VCSH SCT020 SCT050=

USA.gov is the U.S. government's official web portal to all federal, state and local government web resources and services.